sensor_id;sensor_type;location;lat;lon;timestamp;pressure;altitude;pressure_sealevel;temperature;humidity
42603;BME280;28233;55.748;48.752;2023-02-19T00:01:45;98624.53;;;-15.16;81.95
42603;BME280;28233;55.748;48.752;2023-02-19T00:03:50;98627.97;;;-15.15;82.51
42603;BME280;28233;55.748;48.752;2023-02-19T00:05:53;98620.56;;;-15.12;83.11
42603;BME280;28233;55.748;48.752;2023-02-19T00:07:56;98618.00;;;-15.05;82.88
42603;BME280;28233;55.748;48.752;2023-02-19T00:09:59;98621.19;;;-15.09;83.04
42603;BME280;28233;55.748;48.752;2023-02-19T00:12:02;98617.00;;;-15.04;84.05
42603;BME280;28233;55.748;48.752;2023-02-19T00:14:05;98619.75;;;-14.97;83.48
42603;BME280;28233;55.748;48.752;2023-02-19T00:16:11;98619.53;;;-14.96;83.73
42603;BME280;28233;55.748;48.752;2023-02-19T00:18:14;98624.81;;;-14.96;83.11
42603;BME280;28233;55.748;48.752;2023-02-19T00:20:17;98633.56;;;-14.95;82.73
42603;BME280;28233;55.748;48.752;2023-02-19T00:22:20;98631.75;;;-14.95;82.79
42603;BME280;28233;55.748;48.752;2023-02-19T00:24:22;98634.00;;;-14.92;83.68
42603;BME280;28233;55.748;48.752;2023-02-19T00:26:25;98636.84;;;-14.78;83.50
42603;BME280;28233;55.748;48.752;2023-02-19T00:28:28;98635.41;;;-14.81;83.13
42603;BME280;28233;55.748;48.752;2023-02-19T00:30:31;98630.13;;;-14.81;83.20
42603;BME280;28233;55.748;48.752;2023-02-19T00:32:34;98631.84;;;-14.88;83.96
42603;BME280;28233;55.748;48.752;2023-02-19T00:34:37;98643.22;;;-14.87;83.94
42603;BME280;28233;55.748;48.752;2023-02-19T00:36:40;98628.56;;;-14.90;83.62
42603;BME280;28233;55.748;48.752;2023-02-19T00:38:44;98638.09;;;-14.89;83.42
42603;BME280;28233;55.748;48.752;2023-02-19T00:40:47;98640.94;;;-14.91;83.47
42603;BME280;28233;55.748;48.752;2023-02-19T00:42:49;98623.03;;;-14.95;83.67
42603;BME280;28233;55.748;48.752;2023-02-19T00:44:52;98619.53;;;-14.96;83.71
42603;BME280;28233;55.748;48.752;2023-02-19T00:46:54;98626.47;;;-14.95;83.91
42603;BME280;28233;55.748;48.752;2023-02-19T00:48:57;98619.66;;;-14.89;83.61
42603;BME280;28233;55.748;48.752;2023-02-19T00:51:00;98633.84;;;-14.90;84.13
42603;BME280;28233;55.748;48.752;2023-02-19T00:53:03;98630.84;;;-14.87;84.67
42603;BME280;28233;55.748;48.752;2023-02-19T00:55:06;98628.03;;;-14.85;84.56
42603;BME280;28233;55.748;48.752;2023-02-19T00:57:08;98616.94;;;-14.81;84.40
42603;BME280;28233;55.748;48.752;2023-02-19T00:59:11;98620.94;;;-14.70;84.45
42603;BME280;28233;55.748;48.752;2023-02-19T01:01:14;98618.13;;;-14.68;84.24
42603;BME280;28233;55.748;48.752;2023-02-19T01:03:17;98612.38;;;-14.72;84.06
42603;BME280;28233;55.748;48.752;2023-02-19T01:05:19;98613.28;;;-14.80;84.44
42603;BME280;28233;55.748;48.752;2023-02-19T01:07:22;98612.31;;;-14.79;84.64
42603;BME280;28233;55.748;48.752;2023-02-19T01:09:25;98609.03;;;-14.81;84.48
42603;BME280;28233;55.748;48.752;2023-02-19T01:11:28;98603.94;;;-14.82;84.82
42603;BME280;28233;55.748;48.752;2023-02-19T01:13:31;98607.38;;;-14.82;84.77
42603;BME280;28233;55.748;48.752;2023-02-19T01:15:35;98608.13;;;-14.88;85.38
42603;BME280;28233;55.748;48.752;2023-02-19T01:17:37;98601.56;;;-14.92;84.74
42603;BME280;28233;55.748;48.752;2023-02-19T01:19:40;98606.66;;;-14.91;85.18
42603;BME280;28233;55.748;48.752;2023-02-19T01:21:43;98600.38;;;-14.89;84.92
42603;BME280;28233;55.748;48.752;2023-02-19T01:23:47;98593.19;;;-14.96;85.13
42603;BME280;28233;55.748;48.752;2023-02-19T01:25:50;98597.84;;;-14.98;84.82
42603;BME280;28233;55.748;48.752;2023-02-19T01:27:52;98602.66;;;-15.01;84.70
42603;BME280;28233;55.748;48.752;2023-02-19T01:29:55;98615.72;;;-15.08;84.59
42603;BME280;28233;55.748;48.752;2023-02-19T01:31:58;98614.91;;;-15.08;84.83
42603;BME280;28233;55.748;48.752;2023-02-19T01:34:03;98606.19;;;-15.09;85.03
42603;BME280;28233;55.748;48.752;2023-02-19T01:36:06;98599.91;;;-15.08;84.50
42603;BME280;28233;55.748;48.752;2023-02-19T01:38:09;98606.38;;;-15.10;84.22
42603;BME280;28233;55.748;48.752;2023-02-19T01:40:11;98608.34;;;-15.13;84.16
42603;BME280;28233;55.748;48.752;2023-02-19T01:42:15;98604.53;;;-15.10;84.32
42603;BME280;28233;55.748;48.752;2023-02-19T01:46:33;98603.63;;;-15.17;84.83
42603;BME280;28233;55.748;48.752;2023-02-19T01:48:38;98602.53;;;-15.23;84.34
42603;BME280;28233;55.748;48.752;2023-02-19T01:50:46;98604.97;;;-15.21;84.29
42603;BME280;28233;55.748;48.752;2023-02-19T01:52:50;98599.09;;;-15.23;84.05
42603;BME280;28233;55.748;48.752;2023-02-19T01:54:53;98609.44;;;-15.22;83.71
42603;BME280;28233;55.748;48.752;2023-02-19T01:56:58;98612.31;;;-15.31;84.13
42603;BME280;28233;55.748;48.752;2023-02-19T01:59:01;98607.84;;;-15.31;84.48
42603;BME280;28233;55.748;48.752;2023-02-19T02:01:06;98599.78;;;-15.29;84.22
42603;BME280;28233;55.748;48.752;2023-02-19T02:03:11;98601.34;;;-15.35;84.46
42603;BME280;28233;55.748;48.752;2023-02-19T02:05:23;98606.78;;;-15.37;84.27
42603;BME280;28233;55.748;48.752;2023-02-19T02:07:26;98594.94;;;-15.41;84.19
42603;BME280;28233;55.748;48.752;2023-02-19T02:09:47;98600.84;;;-15.39;84.27
42603;BME280;28233;55.748;48.752;2023-02-19T02:12:08;98602.56;;;-15.46;84.14
42603;BME280;28233;55.748;48.752;2023-02-19T02:14:11;98603.91;;;-15.50;84.00
42603;BME280;28233;55.748;48.752;2023-02-19T02:21:24;98606.09;;;-15.53;83.64
42603;BME280;28233;55.748;48.752;2023-02-19T02:31:17;98606.66;;;-15.66;83.99
42603;BME280;28233;55.748;48.752;2023-02-19T02:33:35;98604.03;;;-15.66;84.15
42603;BME280;28233;55.748;48.752;2023-02-19T02:35:53;98617.84;;;-15.64;84.09
42603;BME280;28233;55.748;48.752;2023-02-19T02:38:01;98601.06;;;-15.63;84.36
42603;BME280;28233;55.748;48.752;2023-02-19T02:40:06;98603.31;;;-15.75;84.19
42603;BME280;28233;55.748;48.752;2023-02-19T02:42:09;98604.59;;;-15.71;84.51
42603;BME280;28233;55.748;48.752;2023-02-19T02:44:34;98596.88;;;-15.72;84.55
42603;BME280;28233;55.748;48.752;2023-02-19T02:46:40;98609.03;;;-15.71;84.32
42603;BME280;28233;55.748;48.752;2023-02-19T02:48:48;98604.78;;;-15.72;84.40
42603;BME280;28233;55.748;48.752;2023-02-19T02:51:18;98605.44;;;-15.70;85.37
42603;BME280;28233;55.748;48.752;2023-02-19T02:53:47;98598.88;;;-15.60;85.26
42603;BME280;28233;55.748;48.752;2023-02-19T02:56:09;98599.69;;;-15.59;85.76
42603;BME280;28233;55.748;48.752;2023-02-19T02:58:16;98593.25;;;-15.57;85.58
42603;BME280;28233;55.748;48.752;2023-02-19T03:00:19;98588.63;;;-15.55;85.86
42603;BME280;28233;55.748;48.752;2023-02-19T03:02:25;98593.75;;;-15.53;85.58
42603;BME280;28233;55.748;48.752;2023-02-19T03:04:52;98593.56;;;-15.51;85.84
42603;BME280;28233;55.748;48.752;2023-02-19T03:07:15;98598.00;;;-15.52;86.25
42603;BME280;28233;55.748;48.752;2023-02-19T03:09:22;98583.03;;;-15.51;86.71
42603;BME280;28233;55.748;48.752;2023-02-19T03:11:33;98591.38;;;-15.48;86.61
42603;BME280;28233;55.748;48.752;2023-02-19T03:14:09;98584.78;;;-15.44;86.69
42603;BME280;28233;55.748;48.752;2023-02-19T03:16:35;98586.72;;;-15.38;87.42
42603;BME280;28233;55.748;48.752;2023-02-19T03:18:59;98581.31;;;-15.44;87.16
42603;BME280;28233;55.748;48.752;2023-02-19T03:21:21;98590.78;;;-15.35;87.31
42603;BME280;28233;55.748;48.752;2023-02-19T03:23:27;98589.97;;;-15.36;87.10
42603;BME280;28233;55.748;48.752;2023-02-19T03:25:50;98578.59;;;-15.36;86.73
42603;BME280;28233;55.748;48.752;2023-02-19T03:28:07;98583.50;;;-15.33;87.04
42603;BME280;28233;55.748;48.752;2023-02-19T03:30:19;98585.97;;;-15.31;86.98
42603;BME280;28233;55.748;48.752;2023-02-19T03:32:28;98578.53;;;-15.28;86.85
42603;BME280;28233;55.748;48.752;2023-02-19T03:34:47;98584.25;;;-15.24;86.70
42603;BME280;28233;55.748;48.752;2023-02-19T03:37:11;98590.00;;;-15.21;86.04
42603;BME280;28233;55.748;48.752;2023-02-19T03:39:19;98588.81;;;-15.18;86.55
42603;BME280;28233;55.748;48.752;2023-02-19T03:46:36;98586.19;;;-15.18;85.41
42603;BME280;28233;55.748;48.752;2023-02-19T03:48:53;98585.81;;;-15.15;85.35
42603;BME280;28233;55.748;48.752;2023-02-19T03:53:16;98595.28;;;-15.21;85.83
42603;BME280;28233;55.748;48.752;2023-02-19T03:58:03;98593.72;;;-15.15;86.38
42603;BME280;28233;55.748;48.752;2023-02-19T04:00:12;98589.09;;;-15.13;86.67
42603;BME280;28233;55.748;48.752;2023-02-19T04:07:06;98584.38;;;-15.03;87.86
42603;BME280;28233;55.748;48.752;2023-02-19T04:09:11;98578.22;;;-14.95;87.76
42603;BME280;28233;55.748;48.752;2023-02-19T04:11:15;98589.75;;;-14.81;87.64
42603;BME280;28233;55.748;48.752;2023-02-19T04:13:28;98580.84;;;-14.80;87.27
42603;BME280;28233;55.748;48.752;2023-02-19T04:15:33;98576.66;;;-14.75;87.45
42603;BME280;28233;55.748;48.752;2023-02-19T04:17:40;98583.38;;;-14.72;87.16
42603;BME280;28233;55.748;48.752;2023-02-19T04:19:44;98575.75;;;-14.67;86.52
42603;BME280;28233;55.748;48.752;2023-02-19T04:21:51;98579.84;;;-14.64;86.98
42603;BME280;28233;55.748;48.752;2023-02-19T04:23:58;98575.56;;;-14.65;86.73
42603;BME280;28233;55.748;48.752;2023-02-19T04:26:03;98577.84;;;-14.62;86.81
42603;BME280;28233;55.748;48.752;2023-02-19T04:28:08;98566.72;;;-14.58;85.89
42603;BME280;28233;55.748;48.752;2023-02-19T04:30:12;98564.97;;;-14.51;86.25
42603;BME280;28233;55.748;48.752;2023-02-19T04:32:15;98574.97;;;-14.46;86.05
42603;BME280;28233;55.748;48.752;2023-02-19T04:34:18;98569.72;;;-14.46;86.20
42603;BME280;28233;55.748;48.752;2023-02-19T04:36:20;98572.34;;;-14.46;85.76
42603;BME280;28233;55.748;48.752;2023-02-19T04:38:23;98567.66;;;-14.44;85.83
42603;BME280;28233;55.748;48.752;2023-02-19T04:40:26;98569.22;;;-14.35;85.41
42603;BME280;28233;55.748;48.752;2023-02-19T04:42:28;98567.84;;;-14.31;85.39
42603;BME280;28233;55.748;48.752;2023-02-19T04:44:32;98569.28;;;-14.28;84.86
42603;BME280;28233;55.748;48.752;2023-02-19T04:46:35;98582.09;;;-14.25;84.66
42603;BME280;28233;55.748;48.752;2023-02-19T04:48:38;98581.63;;;-14.14;84.43
42603;BME280;28233;55.748;48.752;2023-02-19T04:50:41;98577.06;;;-14.05;85.07
42603;BME280;28233;55.748;48.752;2023-02-19T04:52:43;98583.03;;;-13.96;84.92
42603;BME280;28233;55.748;48.752;2023-02-19T04:54:46;98577.56;;;-13.95;84.25
42603;BME280;28233;55.748;48.752;2023-02-19T04:56:49;98572.59;;;-13.83;84.49
42603;BME280;28233;55.748;48.752;2023-02-19T04:58:52;98568.75;;;-13.80;83.38
42603;BME280;28233;55.748;48.752;2023-02-19T05:00:55;98571.78;;;-13.84;83.04
42603;BME280;28233;55.748;48.752;2023-02-19T05:02:57;98561.78;;;-13.88;81.91
42603;BME280;28233;55.748;48.752;2023-02-19T05:05:00;98566.75;;;-13.78;82.60
42603;BME280;28233;55.748;48.752;2023-02-19T05:07:04;98560.41;;;-13.84;82.22
42603;BME280;28233;55.748;48.752;2023-02-19T05:09:07;98560.81;;;-13.87;81.73
42603;BME280;28233;55.748;48.752;2023-02-19T05:11:11;98564.88;;;-13.85;81.31
42603;BME280;28233;55.748;48.752;2023-02-19T05:13:14;98567.88;;;-13.88;81.10
42603;BME280;28233;55.748;48.752;2023-02-19T05:15:17;98564.19;;;-13.93;80.51
42603;BME280;28233;55.748;48.752;2023-02-19T05:17:19;98567.69;;;-13.86;81.48
42603;BME280;28233;55.748;48.752;2023-02-19T05:19:22;98570.97;;;-13.84;81.28
42603;BME280;28233;55.748;48.752;2023-02-19T05:21:25;98547.06;;;-13.76;82.10
42603;BME280;28233;55.748;48.752;2023-02-19T05:23:28;98563.63;;;-13.67;80.87
42603;BME280;28233;55.748;48.752;2023-02-19T05:25:30;98560.59;;;-13.64;80.92
42603;BME280;28233;55.748;48.752;2023-02-19T05:27:33;98557.94;;;-13.64;80.68
42603;BME280;28233;55.748;48.752;2023-02-19T05:29:36;98565.28;;;-13.59;81.08
42603;BME280;28233;55.748;48.752;2023-02-19T05:31:38;98562.31;;;-13.50;81.05
42603;BME280;28233;55.748;48.752;2023-02-19T05:33:41;98563.41;;;-13.44;81.15
42603;BME280;28233;55.748;48.752;2023-02-19T05:35:47;98558.19;;;-13.37;80.63
42603;BME280;28233;55.748;48.752;2023-02-19T05:37:50;98549.09;;;-13.28;80.63
42603;BME280;28233;55.748;48.752;2023-02-19T05:39:53;98553.78;;;-13.24;80.32
42603;BME280;28233;55.748;48.752;2023-02-19T05:41:55;98550.97;;;-13.15;80.27
42603;BME280;28233;55.748;48.752;2023-02-19T05:43:58;98553.84;;;-13.10;80.13
42603;BME280;28233;55.748;48.752;2023-02-19T05:46:01;98563.03;;;-13.06;80.24
42603;BME280;28233;55.748;48.752;2023-02-19T05:48:05;98558.38;;;-13.04;79.63
42603;BME280;28233;55.748;48.752;2023-02-19T05:50:08;98555.34;;;-13.01;79.95
42603;BME280;28233;55.748;48.752;2023-02-19T05:52:10;98558.22;;;-12.96;79.57
42603;BME280;28233;55.748;48.752;2023-02-19T05:54:13;98555.56;;;-12.96;79.53
42603;BME280;28233;55.748;48.752;2023-02-19T05:58:28;98563.00;;;-12.78;79.51
42603;BME280;28233;55.748;48.752;2023-02-19T06:00:32;98557.72;;;-12.78;78.99
42603;BME280;28233;55.748;48.752;2023-02-19T06:02:35;98553.28;;;-12.71;78.72
42603;BME280;28233;55.748;48.752;2023-02-19T06:04:38;98544.50;;;-12.78;78.41
42603;BME280;28233;55.748;48.752;2023-02-19T06:06:41;98561.38;;;-12.79;77.40
42603;BME280;28233;55.748;48.752;2023-02-19T06:08:44;98559.94;;;-12.82;76.91
42603;BME280;28233;55.748;48.752;2023-02-19T06:10:47;98554.19;;;-12.92;77.01
42603;BME280;28233;55.748;48.752;2023-02-19T06:12:53;98556.06;;;-12.86;77.57
42603;BME280;28233;55.748;48.752;2023-02-19T06:14:56;98556.47;;;-12.82;77.69
42603;BME280;28233;55.748;48.752;2023-02-19T06:16:58;98553.81;;;-12.82;77.34
42603;BME280;28233;55.748;48.752;2023-02-19T06:19:01;98558.94;;;-12.81;76.80
42603;BME280;28233;55.748;48.752;2023-02-19T06:21:07;98556.28;;;-12.81;77.20
42603;BME280;28233;55.748;48.752;2023-02-19T06:23:10;98573.16;;;-12.82;76.56
42603;BME280;28233;55.748;48.752;2023-02-19T06:25:13;98569.50;;;-12.81;76.50
42603;BME280;28233;55.748;48.752;2023-02-19T06:27:16;98569.78;;;-12.69;76.85
42603;BME280;28233;55.748;48.752;2023-02-19T06:29:19;98573.91;;;-12.60;77.11
42603;BME280;28233;55.748;48.752;2023-02-19T06:31:24;98571.88;;;-12.58;76.10
42603;BME280;28233;55.748;48.752;2023-02-19T06:33:27;98563.94;;;-12.51;76.01
42603;BME280;28233;55.748;48.752;2023-02-19T06:35:30;98572.53;;;-12.42;75.90
42603;BME280;28233;55.748;48.752;2023-02-19T06:37:33;98568.72;;;-12.33;76.15
42603;BME280;28233;55.748;48.752;2023-02-19T06:39:36;98570.94;;;-12.30;76.12
42603;BME280;28233;55.748;48.752;2023-02-19T06:41:40;98566.72;;;-12.24;75.18
42603;BME280;28233;55.748;48.752;2023-02-19T06:43:45;98567.09;;;-12.27;74.94
42603;BME280;28233;55.748;48.752;2023-02-19T06:45:51;98571.56;;;-12.28;74.65
42603;BME280;28233;55.748;48.752;2023-02-19T06:47:54;98557.97;;;-12.25;74.83
42603;BME280;28233;55.748;48.752;2023-02-19T06:50:00;98560.41;;;-12.23;75.06
42603;BME280;28233;55.748;48.752;2023-02-19T06:52:05;98564.25;;;-12.26;74.12
42603;BME280;28233;55.748;48.752;2023-02-19T06:54:08;98576.91;;;-12.21;74.83
42603;BME280;28233;55.748;48.752;2023-02-19T06:56:31;98572.44;;;-12.14;75.02
42603;BME280;28233;55.748;48.752;2023-02-19T06:58:35;98574.72;;;-12.04;75.01
42603;BME280;28233;55.748;48.752;2023-02-19T07:00:37;98569.00;;;-12.08;74.31
42603;BME280;28233;55.748;48.752;2023-02-19T07:02:40;98571.28;;;-11.98;74.81
42603;BME280;28233;55.748;48.752;2023-02-19T07:04:43;98570.06;;;-11.69;75.24
42603;BME280;28233;55.748;48.752;2023-02-19T07:06:45;98562.16;;;-11.56;74.37
42603;BME280;28233;55.748;48.752;2023-02-19T07:08:49;98557.25;;;-11.59;72.93
42603;BME280;28233;55.748;48.752;2023-02-19T07:10:56;98567.63;;;-11.57;72.85
42603;BME280;28233;55.748;48.752;2023-02-19T07:12:59;98559.91;;;-11.65;72.02
42603;BME280;28233;55.748;48.752;2023-02-19T07:15:02;98574.56;;;-11.63;72.43
42603;BME280;28233;55.748;48.752;2023-02-19T07:17:05;98559.50;;;-11.56;72.46
42603;BME280;28233;55.748;48.752;2023-02-19T07:19:09;98558.88;;;-11.58;71.86
42603;BME280;28233;55.748;48.752;2023-02-19T07:21:13;98555.63;;;-11.46;71.86
42603;BME280;28233;55.748;48.752;2023-02-19T07:23:16;98557.84;;;-11.50;71.71
42603;BME280;28233;55.748;48.752;2023-02-19T07:25:19;98555.81;;;-11.48;71.86
42603;BME280;28233;55.748;48.752;2023-02-19T07:27:21;98556.44;;;-11.53;71.48
42603;BME280;28233;55.748;48.752;2023-02-19T07:29:24;98561.34;;;-11.50;71.60
42603;BME280;28233;55.748;48.752;2023-02-19T07:31:27;98558.69;;;-11.43;71.64
42603;BME280;28233;55.748;48.752;2023-02-19T07:33:30;98549.91;;;-11.37;72.37
42603;BME280;28233;55.748;48.752;2023-02-19T07:35:33;98553.56;;;-11.18;72.40
42603;BME280;28233;55.748;48.752;2023-02-19T07:37:35;98552.56;;;-11.17;71.15
42603;BME280;28233;55.748;48.752;2023-02-19T07:39:38;98552.34;;;-11.15;70.90
42603;BME280;28233;55.748;48.752;2023-02-19T07:41:40;98551.75;;;-11.11;70.79
42603;BME280;28233;55.748;48.752;2023-02-19T07:43:43;98537.25;;;-11.01;71.19
42603;BME280;28233;55.748;48.752;2023-02-19T07:45:46;98549.69;;;-10.89;70.97
42603;BME280;28233;55.748;48.752;2023-02-19T07:47:49;98543.72;;;-10.77;70.42
42603;BME280;28233;55.748;48.752;2023-02-19T07:49:52;98544.75;;;-10.72;70.44
42603;BME280;28233;55.748;48.752;2023-02-19T07:51:54;98546.72;;;-10.60;70.08
42603;BME280;28233;55.748;48.752;2023-02-19T07:53:57;98552.69;;;-10.65;69.70
42603;BME280;28233;55.748;48.752;2023-02-19T07:56:05;98544.28;;;-10.62;69.39
42603;BME280;28233;55.748;48.752;2023-02-19T07:58:08;98553.88;;;-10.54;69.93
42603;BME280;28233;55.748;48.752;2023-02-19T08:00:11;98552.22;;;-10.49;69.43
42603;BME280;28233;55.748;48.752;2023-02-19T08:02:16;98535.44;;;-10.43;69.92
42603;BME280;28233;55.748;48.752;2023-02-19T08:04:38;98542.56;;;-10.30;70.31
42603;BME280;28233;55.748;48.752;2023-02-19T08:06:42;98548.69;;;-10.36;67.88
42603;BME280;28233;55.748;48.752;2023-02-19T08:08:44;98550.13;;;-10.33;68.73
42603;BME280;28233;55.748;48.752;2023-02-19T08:10:47;98547.72;;;-10.41;68.72
42603;BME280;28233;55.748;48.752;2023-02-19T08:13:14;98542.78;;;-10.45;68.99
42603;BME280;28233;55.748;48.752;2023-02-19T08:15:26;98536.84;;;-10.33;69.83
42603;BME280;28233;55.748;48.752;2023-02-19T08:17:29;98534.06;;;-10.13;69.45
42603;BME280;28233;55.748;48.752;2023-02-19T08:19:32;98534.00;;;-10.07;69.57
42603;BME280;28233;55.748;48.752;2023-02-19T08:21:35;98537.66;;;-9.94;68.67
42603;BME280;28233;55.748;48.752;2023-02-19T08:23:38;98538.06;;;-9.97;68.27
42603;BME280;28233;55.748;48.752;2023-02-19T08:25:41;98530.06;;;-9.97;67.96
42603;BME280;28233;55.748;48.752;2023-02-19T08:27:44;98533.91;;;-9.87;69.37
42603;BME280;28233;55.748;48.752;2023-02-19T08:29:47;98526.91;;;-9.81;67.77
42603;BME280;28233;55.748;48.752;2023-02-19T08:31:50;98522.41;;;-9.81;68.79
42603;BME280;28233;55.748;48.752;2023-02-19T08:33:52;98532.19;;;-9.74;67.82
42603;BME280;28233;55.748;48.752;2023-02-19T08:35:55;98529.94;;;-9.71;67.79
42603;BME280;28233;55.748;48.752;2023-02-19T08:37:58;98527.59;;;-9.61;68.33
42603;BME280;28233;55.748;48.752;2023-02-19T08:40:01;98531.22;;;-9.55;67.58
42603;BME280;28233;55.748;48.752;2023-02-19T08:42:05;98524.66;;;-9.52;67.96
42603;BME280;28233;55.748;48.752;2023-02-19T08:44:07;98529.53;;;-9.43;67.55
42603;BME280;28233;55.748;48.752;2023-02-19T08:46:11;98522.06;;;-9.34;67.40
42603;BME280;28233;55.748;48.752;2023-02-19T08:48:14;98509.97;;;-9.30;66.96
42603;BME280;28233;55.748;48.752;2023-02-19T08:50:16;98517.50;;;-9.27;66.73
42603;BME280;28233;55.748;48.752;2023-02-19T08:52:19;98520.16;;;-9.27;66.21
42603;BME280;28233;55.748;48.752;2023-02-19T08:54:22;98511.75;;;-9.24;66.85
42603;BME280;28233;55.748;48.752;2023-02-19T08:56:24;98511.75;;;-9.24;65.74
42603;BME280;28233;55.748;48.752;2023-02-19T08:58:27;98509.38;;;-9.32;65.79
42603;BME280;28233;55.748;48.752;2023-02-19T09:00:30;98502.38;;;-9.26;66.04
42603;BME280;28233;55.748;48.752;2023-02-19T09:02:33;98497.63;;;-9.24;66.17
42603;BME280;28233;55.748;48.752;2023-02-19T09:04:36;98495.41;;;-9.27;65.21
42603;BME280;28233;55.748;48.752;2023-02-19T09:06:39;98501.94;;;-9.23;65.98
42603;BME280;28233;55.748;48.752;2023-02-19T09:08:41;98485.97;;;-9.23;65.77
42603;BME280;28233;55.748;48.752;2023-02-19T09:10:44;98490.78;;;-9.13;65.87
42603;BME280;28233;55.748;48.752;2023-02-19T09:12:47;98490.88;;;-9.02;66.20
42603;BME280;28233;55.748;48.752;2023-02-19T09:14:50;98486.50;;;-8.96;65.36
42603;BME280;28233;55.748;48.752;2023-02-19T09:16:52;98496.13;;;-8.95;65.15
42603;BME280;28233;55.748;48.752;2023-02-19T09:18:55;98485.75;;;-9.03;64.79
42603;BME280;28233;55.748;48.752;2023-02-19T09:20:59;98486.06;;;-9.11;64.73
42603;BME280;28233;55.748;48.752;2023-02-19T09:23:03;98486.22;;;-9.06;65.30
42603;BME280;28233;55.748;48.752;2023-02-19T09:25:05;98488.28;;;-9.08;65.14
42603;BME280;28233;55.748;48.752;2023-02-19T09:27:08;98482.81;;;-9.13;64.83
42603;BME280;28233;55.748;48.752;2023-02-19T09:29:16;98489.06;;;-9.08;65.50
42603;BME280;28233;55.748;48.752;2023-02-19T09:31:19;98490.75;;;-8.88;65.51
42603;BME280;28233;55.748;48.752;2023-02-19T09:33:22;98489.03;;;-8.83;64.74
42603;BME280;28233;55.748;48.752;2023-02-19T09:35:25;98485.13;;;-8.80;65.20
42603;BME280;28233;55.748;48.752;2023-02-19T09:37:28;98478.53;;;-8.78;64.76
42603;BME280;28233;55.748;48.752;2023-02-19T09:39:30;98480.31;;;-8.72;64.70
42603;BME280;28233;55.748;48.752;2023-02-19T09:41:41;98479.41;;;-8.65;64.56
42603;BME280;28233;55.748;48.752;2023-02-19T09:43:46;98485.31;;;-8.63;64.43
42603;BME280;28233;55.748;48.752;2023-02-19T09:45:58;98474.84;;;-8.58;64.52
42603;BME280;28233;55.748;48.752;2023-02-19T09:48:04;98474.75;;;-8.52;64.18
42603;BME280;28233;55.748;48.752;2023-02-19T09:50:11;98475.47;;;-8.44;63.92
42603;BME280;28233;55.748;48.752;2023-02-19T09:52:33;98474.94;;;-8.35;64.34
42603;BME280;28233;55.748;48.752;2023-02-19T09:54:39;98483.44;;;-8.14;64.79
42603;BME280;28233;55.748;48.752;2023-02-19T09:56:43;98477.94;;;-8.01;63.74
42603;BME280;28233;55.748;48.752;2023-02-19T09:58:48;98473.44;;;-7.89;63.49
42603;BME280;28233;55.748;48.752;2023-02-19T10:00:56;98471.31;;;-7.68;64.56
42603;BME280;28233;55.748;48.752;2023-02-19T10:03:12;98475.69;;;-7.74;62.29
42603;BME280;28233;55.748;48.752;2023-02-19T10:05:16;98471.06;;;-7.67;62.81
42603;BME280;28233;55.748;48.752;2023-02-19T10:07:34;98475.72;;;-7.50;63.37
42603;BME280;28233;55.748;48.752;2023-02-19T10:09:39;98479.94;;;-7.42;63.09
42603;BME280;28233;55.748;48.752;2023-02-19T10:11:42;98474.31;;;-7.53;61.17
42603;BME280;28233;55.748;48.752;2023-02-19T10:13:50;98469.34;;;-7.49;62.40
42603;BME280;28233;55.748;48.752;2023-02-19T10:15:57;98472.94;;;-7.44;61.88
42603;BME280;28233;55.748;48.752;2023-02-19T10:18:01;98472.03;;;-7.37;61.48
42603;BME280;28233;55.748;48.752;2023-02-19T10:20:04;98475.88;;;-7.45;60.92
42603;BME280;28233;55.748;48.752;2023-02-19T10:22:08;98479.91;;;-7.54;60.61
42603;BME280;28233;55.748;48.752;2023-02-19T10:24:19;98489.22;;;-7.45;61.44
42603;BME280;28233;55.748;48.752;2023-02-19T10:26:25;98486.06;;;-7.54;61.04
42603;BME280;28233;55.748;48.752;2023-02-19T10:28:31;98489.69;;;-7.78;60.48
42603;BME280;28233;55.748;48.752;2023-02-19T10:30:35;98484.53;;;-8.03;60.88
42603;BME280;28233;55.748;48.752;2023-02-19T10:35:12;98487.09;;;-8.09;61.88
42603;BME280;28233;55.748;48.752;2023-02-19T10:37:16;98496.50;;;-8.24;61.44
42603;BME280;28233;55.748;48.752;2023-02-19T10:39:36;98496.72;;;-8.26;62.52
42603;BME280;28233;55.748;48.752;2023-02-19T10:41:40;98494.34;;;-8.16;62.75
42603;BME280;28233;55.748;48.752;2023-02-19T10:46:14;98493.81;;;-8.06;62.51
42603;BME280;28233;55.748;48.752;2023-02-19T10:48:23;98489.41;;;-8.00;61.19
42603;BME280;28233;55.748;48.752;2023-02-19T10:50:36;98484.78;;;-7.93;61.56
42603;BME280;28233;55.748;48.752;2023-02-19T10:52:40;98492.03;;;-7.82;61.20
42603;BME280;28233;55.748;48.752;2023-02-19T10:54:45;98488.78;;;-7.72;62.00
42603;BME280;28233;55.748;48.752;2023-02-19T10:56:48;98476.53;;;-7.73;60.95
42603;BME280;28233;55.748;48.752;2023-02-19T10:58:51;98471.28;;;-7.80;60.71
42603;BME280;28233;55.748;48.752;2023-02-19T11:01:14;98477.78;;;-7.76;61.34
42603;BME280;28233;55.748;48.752;2023-02-19T11:03:20;98477.78;;;-7.76;60.95
42603;BME280;28233;55.748;48.752;2023-02-19T11:05:23;98474.72;;;-7.91;60.77
42603;BME280;28233;55.748;48.752;2023-02-19T11:07:26;98486.22;;;-7.79;61.45
42603;BME280;28233;55.748;48.752;2023-02-19T11:09:41;98470.97;;;-7.60;60.77
42603;BME280;28233;55.748;48.752;2023-02-19T11:11:49;98477.69;;;-7.46;61.24
42603;BME280;28233;55.748;48.752;2023-02-19T11:13:55;98473.88;;;-7.50;60.51
42603;BME280;28233;55.748;48.752;2023-02-19T11:15:58;98465.63;;;-7.36;61.62
42603;BME280;28233;55.748;48.752;2023-02-19T11:20:15;98460.09;;;-7.35;59.86
42603;BME280;28233;55.748;48.752;2023-02-19T11:24:31;98464.25;;;-7.27;59.63
42603;BME280;28233;55.748;48.752;2023-02-19T11:26:36;98462.75;;;-7.11;60.28
42603;BME280;28233;55.748;48.752;2023-02-19T11:28:40;98466.59;;;-7.07;59.81
42603;BME280;28233;55.748;48.752;2023-02-19T11:30:44;98463.09;;;-6.96;60.59
42603;BME280;28233;55.748;48.752;2023-02-19T11:32:47;98461.47;;;-6.97;60.33